Time;durP1;ratioP1;P1;durP2;ratioP2;P2;SDS_P1;SDS_P2;PMS_P1;PMS_P2;Temp;Humidity;BMP_temperature;BMP_pressure;BME280_temperature;BME280_humidity;BME280_pressure;Samples;Min_cycle;Max_cycle;Signal;HPM_P1;HPM_P2
2022/04/22 00:00:37;;;;;;;7.47;6.97;;;;;;;11.71;100.00;99395.22;5110009;28;20286;-66
2022/04/22 00:03:06;;;;;;;8.07;7.47;;;;;;;11.79;100.00;99408.66;5110958;28;20267;-66
2022/04/22 00:05:33;;;;;;;7.03;6.43;;;;;;;11.80;100.00;99406.00;5111065;28;20689;-66
2022/04/22 00:08:00;;;;;;;6.63;6.13;;;;;;;11.81;100.00;99406.84;5111260;28;20573;-66
2022/04/22 00:10:27;;;;;;;7.67;6.93;;;;;;;11.82;100.00;99403.41;5111176;28;20210;-66
2022/04/22 00:12:54;;;;;;;7.53;7.03;;;;;;;11.83;100.00;99395.63;5110938;28;20229;-66
2022/04/22 00:15:22;;;;;;;7.17;6.67;;;;;;;11.87;100.00;99380.94;5110919;28;20571;-66
2022/04/22 00:17:50;;;;;;;7.37;6.77;;;;;;;11.87;100.00;99368.09;5110989;28;20206;-66
2022/04/22 00:20:18;;;;;;;7.43;6.93;;;;;;;11.86;100.00;99348.44;5110992;28;20555;-66
2022/04/22 00:22:46;;;;;;;7.70;7.10;;;;;;;11.81;100.00;99345.22;5110788;28;20285;-66
2022/04/22 00:25:14;;;;;;;8.00;7.37;;;;;;;11.81;100.00;99347.78;5110859;28;20687;-67
2022/04/22 00:27:41;;;;;;;7.33;6.77;;;;;;;11.80;100.00;99348.66;5111058;28;20582;-66
2022/04/22 00:30:10;;;;;;;8.17;7.53;;;;;;;11.83;100.00;99343.41;5111176;28;20586;-67
2022/04/22 00:32:38;;;;;;;7.00;6.60;;;;;;;11.81;100.00;99334.94;5109464;28;20194;-67
2022/04/22 00:35:05;;;;;;;7.03;6.37;;;;;;;11.86;100.00;99343.28;5111017;28;20712;-66
2022/04/22 00:37:34;;;;;;;7.00;6.50;;;;;;;11.77;100.00;99344.47;5110378;28;20226;-66
2022/04/22 00:40:01;;;;;;;7.40;6.80;;;;;;;11.60;100.00;99321.94;5109415;28;20254;-67
2022/04/22 00:42:28;;;;;;;8.13;7.53;;;;;;;11.71;100.00;99328.44;5109552;28;20718;-66
2022/04/22 00:44:57;;;;;;;7.67;7.17;;;;;;;11.70;100.00;99327.59;5110873;28;20662;-67
2022/04/22 00:47:24;;;;;;;7.90;7.40;;;;;;;11.63;100.00;99315.03;5110926;28;20198;-66
2022/04/22 00:49:51;;;;;;;9.27;8.40;;;;;;;11.68;100.00;99311.41;5110707;28;20222;-66
2022/04/22 00:52:19;;;;;;;9.47;8.53;;;;;;;11.61;100.00;99286.81;5110631;28;20199;-66
2022/04/22 00:54:48;;;;;;;9.57;8.50;;;;;;;11.71;100.00;99318.19;5110576;28;20191;-66
2022/04/22 00:57:16;;;;;;;13.60;9.67;;;;;;;11.72;100.00;99325.00;5110644;28;20194;-67
2022/04/22 00:59:45;;;;;;;9.87;8.90;;;;;;;11.67;100.00;99308.88;5110601;28;20285;-66
2022/04/22 01:02:12;;;;;;;10.73;9.63;;;;;;;11.68;100.00;99313.13;5110435;28;20278;-66
2022/04/22 01:10:10;;;;;;;12.53;8.47;;;;;;;11.66;100.00;99325.19;5114514;28;20233;-66
2022/04/22 01:12:37;;;;;;;10.70;8.97;;;;;;;11.66;100.00;99320.06;5113986;28;20290;-66
2022/04/22 01:15:06;;;;;;;9.90;8.87;;;;;;;11.45;100.00;99290.84;5113771;28;20197;-66
2022/04/22 01:17:33;;;;;;;10.90;9.97;;;;;;;11.72;100.00;99336.13;5113704;28;20194;-67
2022/04/22 01:20:00;;;;;;;10.17;9.27;;;;;;;11.69;100.00;99335.34;5114237;28;20203;-66
2022/04/22 01:22:28;;;;;;;10.63;9.63;;;;;;;11.68;100.00;99329.38;5114232;28;20191;-66
2022/04/22 01:24:58;;;;;;;13.57;9.60;;;;;;;11.64;100.00;99332.09;5111342;28;20256;-66
2022/04/22 01:27:29;;;;;;;10.00;9.07;;;;;;;11.65;100.00;99333.78;5112674;28;20281;-67
2022/04/22 01:29:56;;;;;;;10.63;9.63;;;;;;;11.64;100.00;99339.78;5113080;28;20223;-66
2022/04/22 01:32:23;;;;;;;10.10;9.30;;;;;;;11.61;100.00;99343.31;5113630;28;20198;-66
2022/04/22 01:34:50;;;;;;;11.17;10.03;;;;;;;11.59;100.00;99351.09;5113934;28;20225;-66
2022/04/22 01:37:17;;;;;;;11.63;10.67;;;;;;;11.57;100.00;99337.44;5113915;28;20317;-66
2022/04/22 01:39:45;;;;;;;12.97;10.10;;;;;;;11.52;100.00;99347.06;5111714;28;20322;-66
2022/04/22 01:42:12;;;;;;;10.90;9.90;;;;;;;11.46;100.00;99354.13;5111249;28;20585;-66
2022/04/22 01:44:39;;;;;;;10.83;9.80;;;;;;;11.24;100.00;99343.75;5111698;28;20282;-66
2022/04/22 01:47:07;;;;;;;13.40;10.67;;;;;;;11.29;100.00;99357.25;5111695;28;20285;-66
2022/04/22 01:49:34;;;;;;;11.40;10.47;;;;;;;11.24;100.00;99348.88;5111388;28;20301;-66
2022/04/22 01:52:01;;;;;;;15.87;11.67;;;;;;;11.13;100.00;99358.66;5111484;28;20186;-66
2022/04/22 01:54:28;;;;;;;14.60;12.03;;;;;;;11.05;100.00;99343.50;5111454;28;20201;-67
2022/04/22 01:56:56;;;;;;;16.50;12.47;;;;;;;11.09;100.00;99339.13;5112785;28;20198;-66
2022/04/22 01:59:23;;;;;;;14.07;11.70;;;;;;;11.10;100.00;99335.69;5113639;28;20206;-66
2022/04/22 02:01:50;;;;;;;12.55;11.15;;;;;;;11.13;100.00;99333.00;5113271;28;20634;-66
2022/04/22 02:04:17;;;;;;;16.93;11.93;;;;;;;10.90;100.00;99287.59;5113308;28;20637;-66
2022/04/22 02:06:44;;;;;;;14.97;11.73;;;;;;;11.22;100.00;99335.25;5113330;28;20643;-66
2022/04/22 02:09:11;;;;;;;15.13;11.60;;;;;;;11.28;100.00;99341.91;5112976;28;20700;-66
2022/04/22 02:11:40;;;;;;;14.87;11.67;;;;;;;11.30;100.00;99338.41;5113298;28;20207;-67
2022/04/22 02:14:09;;;;;;;15.57;12.80;;;;;;;11.37;100.00;99324.47;5113028;28;20194;-66
2022/04/22 02:16:36;;;;;;;12.57;11.37;;;;;;;11.41;100.00;99323.47;5111899;28;20195;-66
2022/04/22 02:19:04;;;;;;;15.40;12.93;;;;;;;11.42;100.00;99309.75;5113143;28;20273;-67
2022/04/22 02:21:31;;;;;;;14.63;13.13;;;;;;;11.43;100.00;99301.19;5113114;28;20213;-66
2022/04/22 02:23:58;;;;;;;23.77;13.83;;;;;;;11.38;100.00;99300.47;5112838;28;20294;-66
2022/04/22 02:26:24;;;;;;;16.43;13.23;;;;;;;11.37;100.00;99296.22;5112761;28;20226;-66
2022/04/22 02:28:51;;;;;;;16.87;12.57;;;;;;;11.39;100.00;99297.03;5110737;28;20670;-67
2022/04/22 02:31:19;;;;;;;14.50;13.00;;;;;;;11.36;100.00;99292.00;5112724;28;20597;-66
2022/04/22 02:33:46;;;;;;;14.10;12.37;;;;;;;11.38;100.00;99299.63;5112531;28;20289;-67
2022/04/22 02:36:16;;;;;;;12.90;11.57;;;;;;;11.32;100.00;99297.28;5111847;28;20198;-66
2022/04/22 02:38:43;;;;;;;12.47;11.20;;;;;;;11.19;100.00;99288.34;5111466;28;20195;-66
2022/04/22 02:46:40;;;;;;;12.27;10.97;;;;;;;11.04;100.00;99290.56;5112666;28;20734;-66
2022/04/22 02:49:07;;;;;;;12.23;11.03;;;;;;;11.07;100.00;99289.59;5112050;28;20622;-67
2022/04/22 02:51:34;;;;;;;13.70;11.67;;;;;;;11.14;100.00;99280.81;5112251;28;20234;-66
2022/04/22 02:54:01;;;;;;;12.97;11.27;;;;;;;11.12;100.00;99277.44;5112390;28;20555;-66
2022/04/22 02:56:30;;;;;;;16.37;12.20;;;;;;;11.08;100.00;99281.03;5112266;28;20198;-66
2022/04/22 02:58:58;;;;;;;12.73;11.50;;;;;;;10.90;100.00;99290.16;5112527;28;20285;-66
2022/04/22 03:01:25;;;;;;;10.87;9.60;;;;;;;10.85;100.00;99271.53;5112063;28;20192;-66
2022/04/22 03:03:53;;;;;;;11.97;10.63;;;;;;;10.77;100.00;99267.53;5112142;28;20209;-66
2022/04/22 03:06:20;;;;;;;14.47;10.87;;;;;;;10.78;100.00;99264.94;5112227;28;20742;-66
2022/04/22 03:08:47;;;;;;;11.00;9.93;;;;;;;10.69;100.00;99266.97;5112118;28;20658;-66
2022/04/22 03:11:20;;;;;;;13.30;11.40;;;;;;;10.81;100.00;99277.66;5112041;28;20202;-66
2022/04/22 03:13:47;;;;;;;13.10;11.53;;;;;;;10.79;100.00;99281.16;5111510;28;20297;-66
2022/04/22 03:16:14;;;;;;;11.30;10.13;;;;;;;10.87;100.00;99287.69;5111716;28;20199;-66
2022/04/22 03:18:41;;;;;;;13.80;11.93;;;;;;;10.98;100.00;99284.78;5111883;28;20311;-66
2022/04/22 03:21:09;;;;;;;14.47;11.60;;;;;;;11.06;100.00;99293.03;5112144;28;20282;-66
2022/04/22 03:23:36;;;;;;;16.00;12.67;;;;;;;11.13;100.00;99288.56;5111745;28;20194;-66
2022/04/22 03:26:03;;;;;;;14.93;12.30;;;;;;;11.18;100.00;99282.34;5111991;28;20201;-66
2022/04/22 03:28:30;;;;;;;12.77;11.53;;;;;;;11.23;100.00;99275.38;5110715;28;20290;-66
2022/04/22 03:30:57;;;;;;;16.77;13.40;;;;;;;11.05;100.00;99251.16;5111461;28;20774;-67
2022/04/22 03:33:24;;;;;;;22.43;14.80;;;;;;;11.02;100.00;99268.38;5110920;28;20285;-67
2022/04/22 03:35:51;;;;;;;28.87;18.40;;;;;;;11.05;100.00;99281.94;5108774;28;20298;-66
2022/04/22 03:38:21;;;;;;;24.77;16.27;;;;;;;11.12;100.00;99292.84;5110261;28;20206;-67
2022/04/22 03:40:48;;;;;;;23.67;16.03;;;;;;;11.13;100.00;99299.66;5109068;28;20229;-66
2022/04/22 03:43:15;;;;;;;19.33;14.90;;;;;;;11.17;100.00;99293.53;5111714;28;20198;-66
2022/04/22 03:45:43;;;;;;;22.90;15.27;;;;;;;11.16;100.00;99286.72;5110976;28;20201;-66
2022/04/22 03:48:11;;;;;;;18.53;14.37;;;;;;;11.21;100.00;99292.50;5111697;28;20252;-66
2022/04/22 03:50:39;;;;;;;25.53;15.60;;;;;;;11.15;100.00;99277.34;5111327;28;20215;-66
2022/04/22 03:53:06;;;;;;;22.27;15.60;;;;;;;11.25;100.00;99293.25;5111358;28;20250;-66
2022/04/22 03:55:35;;;;;;;23.80;15.17;;;;;;;11.26;100.00;99298.34;5110491;28;20301;-67
2022/04/22 03:58:13;;;;;;;21.77;14.80;;;;;;;11.22;100.00;99289.06;5108142;28;20201;-66
2022/04/22 04:00:45;;;;;;;18.23;13.63;;;;;;;11.23;100.00;99280.50;5109172;28;20285;-66
2022/04/22 04:03:14;;;;;;;20.10;15.13;;;;;;;11.33;100.00;99292.13;5109139;28;20635;-66
2022/04/22 04:05:46;;;;;;;17.80;14.80;;;;;;;11.33;100.00;99306.66;5107902;28;20207;-66
2022/04/22 04:08:13;;;;;;;18.67;13.97;;;;;;;11.32;100.00;99318.66;5108977;28;20217;-67
2022/04/22 04:16:25;;;;;;;21.50;13.33;;;;;;;11.36;100.00;99321.97;5106117;28;20233;-66
2022/04/22 04:18:52;;;;;;;13.73;12.37;;;;;;;11.36;100.00;99319.41;5109555;28;20237;-66
2022/04/22 04:24:23;;;;;;;16.90;12.70;;;;;;;11.35;100.00;99331.38;5110523;28;20685;-66
2022/04/22 04:26:53;;;;;;;13.73;12.30;;;;;;;11.36;100.00;99327.94;5110604;28;21382;-66
2022/04/22 04:29:20;;;;;;;19.50;14.03;;;;;;;11.37;100.00;99314.19;5108974;28;20654;-67
2022/04/22 04:31:48;;;;;;;20.10;13.97;;;;;;;11.33;100.00;99312.66;5109703;28;20195;-66
2022/04/22 04:34:15;;;;;;;18.87;14.63;;;;;;;11.22;100.00;99294.19;5110135;28;20207;-66
2022/04/22 04:36:41;;;;;;;20.33;13.93;;;;;;;11.26;100.00;99320.59;5110514;28;20186;-67
2022/04/22 04:39:08;;;;;;;17.73;13.47;;;;;;;11.27;100.00;99333.38;5110572;28;20668;-66
2022/04/22 04:41:35;;;;;;;18.80;14.10;;;;;;;11.30;100.00;99348.69;5112693;28;20666;-67
2022/04/22 04:44:04;;;;;;;20.53;14.30;;;;;;;11.25;100.00;99350.56;5114793;28;20289;-67
2022/04/22 04:46:31;;;;;;;16.80;12.77;;;;;;;11.27;100.00;99347.94;5113588;28;20199;-66
2022/04/22 04:49:01;;;;;;;15.10;13.13;;;;;;;11.33;100.00;99342.59;5114768;28;20199;-66
2022/04/22 04:51:28;;;;;;;14.33;11.83;;;;;;;11.31;100.00;99322.09;5114625;28;20217;-66
2022/04/22 04:53:55;;;;;;;19.77;14.57;;;;;;;11.00;100.00;99312.06;5114813;28;20727;-66
2022/04/22 04:56:22;;;;;;;25.93;16.93;;;;;;;10.91;100.00;99308.97;5113805;28;20194;-66
2022/04/22 04:58:49;;;;;;;20.40;14.93;;;;;;;10.90;100.00;99305.56;5115039;28;20198;-66
2022/04/22 05:01:17;;;;;;;21.63;14.97;;;;;;;10.92;100.00;99306.31;5114120;28;20281;-66
2022/04/22 05:03:44;;;;;;;30.53;21.97;;;;;;;10.97;100.00;99322.41;5114362;28;20194;-66
2022/04/22 05:06:12;;;;;;;30.90;20.33;;;;;;;11.02;100.00;99347.91;5114432;28;20289;-66
2022/04/22 05:08:39;;;;;;;25.10;18.70;;;;;;;11.11;100.00;99352.75;5114475;28;20191;-66
2022/04/22 05:11:06;;;;;;;22.53;18.30;;;;;;;11.04;100.00;99333.31;5114117;28;20646;-66
2022/04/22 05:13:33;;;;;;;21.40;15.90;;;;;;;11.16;100.00;99350.84;5114487;28;20926;-67
2022/04/22 05:16:00;;;;;;;22.27;16.00;;;;;;;11.20;100.00;99362.72;5114194;28;20573;-66
2022/04/22 05:18:29;;;;;;;31.87;21.03;;;;;;;11.24;100.00;99361.72;5114084;28;20659;-67
2022/04/22 05:20:56;;;;;;;25.97;16.73;;;;;;;10.98;100.00;99313.84;5114157;28;20187;-66
2022/04/22 05:23:23;;;;;;;25.30;17.10;;;;;;;11.25;100.00;99355.69;5114009;28;20278;-66
2022/04/22 05:25:50;;;;;;;17.10;13.20;;;;;;;11.31;100.00;99368.31;5112932;28;20203;-66
2022/04/22 05:28:17;;;;;;;15.10;13.33;;;;;;;11.34;100.00;99386.16;5113294;28;20289;-66
2022/04/22 05:33:30;;;;;;;17.50;14.37;;;;;;;11.32;100.00;99357.16;5112850;28;20726;-66
2022/04/22 05:35:57;;;;;;;19.83;14.63;;;;;;;11.25;100.00;99354.84;5113821;28;20290;-66
2022/04/22 05:38:24;;;;;;;18.83;13.97;;;;;;;11.27;100.00;99359.06;5113937;28;20220;-66
2022/04/22 05:40:51;;;;;;;19.70;14.93;;;;;;;11.28;100.00;99368.41;5111071;28;20222;-65
2022/04/22 05:43:18;;;;;;;19.53;13.13;;;;;;;11.30;100.00;99358.09;5112136;28;20197;-64
2022/04/22 05:45:45;;;;;;;17.37;13.47;;;;;;;11.28;100.00;99355.56;5106211;28;20579;-65
2022/04/22 05:48:12;;;;;;;14.43;12.93;;;;;;;11.25;100.00;99359.97;5107154;28;20209;-64
2022/04/22 05:50:40;;;;;;;19.60;15.37;;;;;;;11.14;100.00;99367.19;5110638;28;20215;-67
2022/04/22 05:53:07;;;;;;;18.63;16.00;;;;;;;11.00;100.00;99349.69;5110633;28;20199;-71
2022/04/22 05:55:34;;;;;;;17.23;14.47;;;;;;;10.93;100.00;99359.31;5110661;28;20199;-67
2022/04/22 05:58:02;;;;;;;17.73;13.83;;;;;;;10.94;100.00;99372.97;5112410;28;20285;-67
2022/04/22 06:00:31;;;;;;;19.03;12.73;;;;;;;10.84;100.00;99351.06;5112793;28;20281;-67
2022/04/22 06:02:59;;;;;;;14.50;12.20;;;;;;;10.95;100.00;99372.09;5112393;28;20289;-67
2022/04/22 06:05:26;;;;;;;17.43;13.53;;;;;;;10.91;100.00;99360.25;5112306;28;20206;-67
2022/04/22 06:10:36;;;;;;;17.43;13.30;;;;;;;10.95;100.00;99349.00;5076483;28;20234;-67
2022/04/22 06:13:05;;;;;;;21.40;13.77;;;;;;;11.02;100.00;99368.41;5112119;28;20210;-66
2022/04/22 06:15:32;;;;;;;19.93;12.70;;;;;;;10.99;100.00;99369.38;5109188;28;20669;-66
2022/04/22 06:18:00;;;;;;;16.47;14.00;;;;;;;10.97;100.00;99354.91;5109735;28;20290;-66
2022/04/22 06:20:27;;;;;;;25.33;14.87;;;;;;;11.03;100.00;99354.72;5109622;28;20199;-66
2022/04/22 06:22:55;;;;;;;28.60;17.63;;;;;;;11.09;100.00;99334.00;5110050;28;20285;-65
2022/04/22 06:25:23;;;;;;;42.57;22.30;;;;;;;11.08;100.00;99322.06;5109480;28;20210;-64
2022/04/22 06:27:50;;;;;;;45.03;23.10;;;;;;;11.03;100.00;99319.66;5109754;28;20199;-66
2022/04/22 06:30:18;;;;;;;27.93;17.40;;;;;;;10.87;100.00;99309.94;5109974;28;20222;-66
2022/04/22 06:32:47;;;;;;;21.30;15.40;;;;;;;11.09;100.00;99328.84;5111749;28;21281;-66
2022/04/22 06:35:16;;;;;;;17.70;14.23;;;;;;;11.12;100.00;99318.50;5108302;28;20198;-65
2022/04/22 06:37:45;;;;;;;19.77;14.47;;;;;;;11.14;100.00;99311.59;5110419;28;20207;-65
2022/04/22 06:46:00;;;;;;;17.70;14.93;;;;;;;11.01;100.00;99218.00;5017975;28;20324;-67
2022/04/22 06:48:30;;;;;;;19.53;14.30;;;;;;;10.98;100.00;99248.88;5073351;28;20295;-64
2022/04/22 06:50:59;;;;;;;19.03;14.23;;;;;;;10.90;100.00;99250.84;5110585;28;20226;-65
2022/04/22 06:53:27;;;;;;;18.00;14.83;;;;;;;10.96;100.00;99245.50;5110437;28;20636;-67
2022/04/22 06:55:58;;;;;;;17.20;15.07;;;;;;;11.00;100.00;99260.75;5110177;28;20199;-66
2022/04/22 06:58:26;;;;;;;15.23;12.73;;;;;;;11.09;100.00;99272.41;5107655;28;20206;-66
2022/04/22 07:00:54;;;;;;;15.90;12.77;;;;;;;11.11;100.00;99270.66;5110169;27;20199;-66
2022/04/22 07:03:21;;;;;;;14.57;13.10;;;;;;;11.07;100.00;99263.94;5110529;28;20329;-67
2022/04/22 07:05:51;;;;;;;19.73;15.00;;;;;;;11.16;100.00;99262.78;5110730;28;20287;-66
2022/04/22 07:08:20;;;;;;;26.40;19.00;;;;;;;11.24;100.00;99251.38;5109689;28;20219;-66
2022/04/22 07:10:47;;;;;;;14.20;12.77;;;;;;;11.21;100.00;99250.66;5109761;28;20223;-66
2022/04/22 07:13:17;;;;;;;16.43;13.73;;;;;;;11.26;100.00;99249.59;5112073;27;20233;-66
2022/04/22 07:15:45;;;;;;;17.03;14.43;;;;;;;11.36;100.00;99256.06;5110334;28;20206;-66
2022/04/22 07:18:13;;;;;;;15.20;12.37;;;;;;;11.40;100.00;99262.78;5109690;28;20203;-65
2022/04/22 07:20:41;;;;;;;14.57;13.07;;;;;;;11.26;100.00;99233.34;5110174;28;20210;-64
2022/04/22 07:23:10;;;;;;;14.70;13.30;;;;;;;11.49;100.00;99272.72;5111363;28;20202;-65
2022/04/22 07:25:38;;;;;;;15.67;13.47;;;;;;;11.57;100.00;99269.84;5108684;27;20286;-66
2022/04/22 07:28:05;;;;;;;15.27;11.77;;;;;;;11.68;100.00;99262.59;5111747;27;20578;-66
2022/04/22 07:30:35;;;;;;;14.63;12.37;;;;;;;11.66;100.00;99254.13;5110391;28;20303;-66
2022/04/22 07:33:02;;;;;;;17.20;13.47;;;;;;;11.69;100.00;99258.31;5110943;28;20293;-66
2022/04/22 07:35:29;;;;;;;14.93;13.43;;;;;;;11.77;100.00;99261.44;5109887;28;20231;-66
2022/04/22 07:37:57;;;;;;;16.00;13.57;;;;;;;11.86;100.00;99266.25;5107840;28;20637;-66
2022/04/22 07:40:24;;;;;;;15.67;14.10;;;;;;;11.87;100.00;99262.78;5108838;28;20306;-65
2022/04/22 07:48:26;;;;;;;13.70;12.37;;;;;;;12.01;100.00;99255.41;5111111;28;20317;-64
2022/04/22 07:50:54;;;;;;;13.60;12.23;;;;;;;12.15;100.00;99267.72;5110493;28;20705;-65
2022/04/22 07:53:22;;;;;;;12.10;11.07;;;;;;;12.27;100.00;99262.94;5111012;28;20194;-65
2022/04/22 07:55:49;;;;;;;14.43;12.90;;;;;;;12.35;100.00;99258.34;5111494;28;20294;-65
2022/04/22 07:58:18;;;;;;;18.07;13.83;;;;;;;12.35;100.00;99249.78;5109971;28;20278;-66
2022/04/22 08:00:47;;;;;;;17.37;12.40;;;;;;;12.42;100.00;99228.06;5111159;28;20248;-66
2022/04/22 08:03:15;;;;;;;13.93;12.43;;;;;;;12.47;100.00;99234.69;5109646;28;20195;-66
2022/04/22 08:05:42;;;;;;;22.43;14.83;;;;;;;12.53;100.00;99249.06;5111712;28;20206;-66
2022/04/22 08:08:09;;;;;;;14.27;12.27;;;;;;;12.58;100.00;99237.69;5111385;28;20205;-67
2022/04/22 08:10:36;;;;;;;40.53;20.43;;;;;;;12.79;100.00;99246.25;5111686;28;20210;-67
2022/04/22 08:13:04;;;;;;;13.30;11.90;;;;;;;12.88;100.00;99230.44;5111052;28;20570;-64
2022/04/22 08:15:31;;;;;;;13.43;11.33;;;;;;;12.86;100.00;99226.25;5110765;28;20231;-67
2022/04/22 08:17:59;;;;;;;11.20;10.27;;;;;;;13.00;100.00;99219.63;5111500;28;20791;-67
2022/04/22 08:20:26;;;;;;;11.60;10.40;;;;;;;13.18;100.00;99218.03;5111068;28;20198;-67
2022/04/22 08:22:53;;;;;;;12.43;11.23;;;;;;;13.44;100.00;99225.41;5109579;28;20681;-67
2022/04/22 08:25:20;;;;;;;11.37;10.47;;;;;;;13.63;100.00;99226.25;5110946;28;20199;-66
2022/04/22 08:27:47;;;;;;;11.03;9.93;;;;;;;13.76;100.00;99234.31;5110955;28;20282;-67
2022/04/22 08:30:14;;;;;;;10.90;9.90;;;;;;;13.99;100.00;99218.59;5110646;28;20202;-66
2022/04/22 08:32:41;;;;;;;19.00;13.83;;;;;;;14.08;100.00;99222.50;5110638;28;20574;-66
2022/04/22 08:35:11;;;;;;;10.60;9.87;;;;;;;14.25;100.00;99227.66;5110089;28;20297;-66
2022/04/22 08:37:38;;;;;;;23.70;13.13;;;;;;;14.53;100.00;99225.47;5110125;28;20198;-67
2022/04/22 08:40:07;;;;;;;11.50;10.37;;;;;;;14.53;100.00;99210.00;5111891;28;20301;-67
2022/04/22 08:42:36;;;;;;;14.60;11.70;;;;;;;14.69;100.00;99216.06;5110776;28;20269;-66
2022/04/22 08:45:03;;;;;;;11.90;10.80;;;;;;;14.91;100.00;99222.72;5110705;28;20201;-67
2022/04/22 08:50:18;;;;;;;18.13;12.87;;;;;;;15.14;100.00;99200.00;5111991;28;20677;-66
2022/04/22 08:52:54;;;;;;;11.47;9.90;;;;;;;15.26;100.00;99193.34;5110450;28;20242;-66
2022/04/22 08:55:22;;;;;;;27.27;16.87;;;;;;;15.35;100.00;99203.19;5108945;28;20255;-66
2022/04/22 08:57:49;;;;;;;17.43;12.43;;;;;;;15.55;100.00;99205.59;5109172;28;20289;-66
2022/04/22 09:00:18;;;;;;;12.07;10.97;;;;;;;15.56;100.00;99199.53;5107647;28;20631;-66
2022/04/22 09:02:45;;;;;;;10.77;9.83;;;;;;;15.70;100.00;99191.03;5108716;28;20197;-66
2022/04/22 09:05:13;;;;;;;9.63;8.93;;;;;;;15.72;100.00;99196.94;5105562;28;20200;-66
2022/04/22 09:07:43;;;;;;;9.10;8.50;;;;;;;15.56;100.00;99198.69;5111125;28;20194;-65
2022/04/22 09:10:11;;;;;;;11.27;10.37;;;;;;;15.65;100.00;99193.84;5112823;28;20913;-64
2022/04/22 09:12:38;;;;;;;11.17;10.27;;;;;;;15.79;100.00;99192.28;5109930;28;20218;-66
2022/04/22 09:15:07;;;;;;;10.27;9.30;;;;;;;15.79;100.00;99210.38;5109431;28;20210;-66
2022/04/22 09:17:36;;;;;;;9.10;8.43;;;;;;;16.04;100.00;99213.25;5108647;28;20210;-66
2022/04/22 09:20:05;;;;;;;8.90;8.23;;;;;;;16.21;100.00;99198.50;5110343;28;20301;-66
2022/04/22 09:22:35;;;;;;;10.33;8.80;;;;;;;16.31;100.00;99197.97;5107765;28;20228;-65
2022/04/22 09:25:05;;;;;;;7.87;7.40;;;;;;;16.22;100.00;99179.44;5108991;28;20205;-66
2022/04/22 09:27:33;;;;;;;9.00;8.10;;;;;;;16.26;100.00;99185.28;5110146;28;20631;-66
2022/04/22 09:30:02;;;;;;;8.73;7.93;;;;;;;16.35;100.00;99174.41;5110435;28;20207;-66
2022/04/22 09:32:31;;;;;;;12.00;10.97;;;;;;;16.42;100.00;99180.91;5114895;27;20685;-66
2022/04/22 09:35:07;;;;;;;8.73;7.93;;;;;;;16.47;100.00;99184.06;5114563;27;20631;-66
2022/04/22 09:43:22;;;;;;;8.70;7.87;;;;;;;16.64;100.00;99144.31;5118034;27;20220;-66
2022/04/22 09:45:52;;;;;;;8.03;7.33;;;;;;;16.74;100.00;99130.72;5117795;27;20710;-66
2022/04/22 09:48:20;;;;;;;8.70;8.10;;;;;;;16.78;100.00;99127.03;5115256;27;20298;-66
2022/04/22 09:50:52;;;;;;;7.23;6.83;;;;;;;17.00;100.00;99120.53;5113204;27;20202;-66
2022/04/22 09:53:32;;;;;;;6.00;5.70;;;;;;;17.25;100.00;99125.91;5113418;27;20225;-66
2022/04/22 09:56:06;;;;;;;9.97;9.17;;;;;;;17.20;98.35;99109.81;5114982;27;20206;-66
2022/04/22 09:58:33;;;;;;;7.67;7.17;;;;;;;17.22;100.00;99110.56;5113468;27;20202;-66
2022/04/22 10:01:03;;;;;;;7.73;7.13;;;;;;;17.41;100.00;99098.13;5112300;27;20204;-66
2022/04/22 10:03:31;;;;;;;6.67;6.13;;;;;;;17.40;100.00;99093.03;5112673;27;20633;-66
2022/04/22 10:05:59;;;;;;;5.63;5.27;;;;;;;17.26;97.76;99099.06;5112631;27;20289;-66
2022/04/22 10:08:28;;;;;;;7.83;7.20;;;;;;;17.17;100.00;99089.28;5114234;27;20226;-66
2022/04/22 10:10:58;;;;;;;6.00;5.63;;;;;;;16.99;100.00;99090.41;5115439;27;20734;-66
2022/04/22 10:13:33;;;;;;;5.30;5.00;;;;;;;16.83;100.00;99079.31;5113916;27;20696;-65
2022/04/22 10:16:01;;;;;;;7.00;6.40;;;;;;;16.84;100.00;99078.38;5112265;27;20313;-66
2022/04/22 10:18:28;;;;;;;10.33;6.37;;;;;;;16.95;100.00;99079.41;5109298;28;20293;-66
2022/04/22 10:20:55;;;;;;;7.00;6.60;;;;;;;17.22;100.00;99077.69;5111950;27;20199;-65
2022/04/22 10:23:23;;;;;;;6.03;5.63;;;;;;;17.31;100.00;99073.72;5112537;27;20651;-65
2022/04/22 10:25:50;;;;;;;7.37;6.77;;;;;;;17.41;100.00;99072.22;5110913;28;20202;-65
2022/04/22 10:28:19;;;;;;;7.13;6.73;;;;;;;17.56;100.00;99062.66;5111938;28;20611;-65
2022/04/22 10:30:50;;;;;;;7.43;6.90;;;;;;;17.53;100.00;99053.28;5111621;28;20234;-65
2022/04/22 10:33:17;;;;;;;8.20;7.17;;;;;;;17.47;100.00;99053.69;5112602;27;20659;-65
2022/04/22 10:35:47;;;;;;;7.33;6.87;;;;;;;17.53;100.00;99052.44;5111804;28;20194;-66
2022/04/22 10:38:34;;;;;;;10.77;8.43;;;;;;;17.86;100.00;99039.09;5112028;27;20648;-66
2022/04/22 10:41:02;;;;;;;8.30;7.60;;;;;;;18.08;100.00;99036.75;5110148;28;20229;-66
2022/04/22 10:43:31;;;;;;;8.83;8.03;;;;;;;18.02;99.37;99053.56;5108779;28;20202;-66
2022/04/22 10:49:03;;;;;;;11.43;7.97;;;;;;;18.34;100.00;99030.66;5110352;28;20199;-66
2022/04/22 10:52:02;;;;;;;8.53;7.83;;;;;;;18.36;97.21;99026.19;5109800;28;20279;-66
2022/04/22 10:55:06;;;;;;;8.27;7.47;;;;;;;18.34;97.62;99022.88;5110956;28;20194;-66
2022/04/22 10:57:34;;;;;;;8.20;7.37;;;;;;;18.31;97.13;99020.47;5109841;28;20646;-66
2022/04/22 11:00:27;;;;;;;17.63;7.87;;;;;;;18.42;96.03;99011.97;5111683;28;20206;-66
2022/04/22 11:03:03;;;;;;;6.47;5.93;;;;;;;18.33;96.82;99008.22;5111721;28;20198;-66
2022/04/22 11:05:37;;;;;;;10.67;7.07;;;;;;;18.51;96.19;99020.00;5111244;28;20194;-66
2022/04/22 11:08:06;;;;;;;5.73;5.20;;;;;;;18.53;96.54;99025.06;5110407;28;20202;-66
2022/04/22 11:11:13;;;;;;;5.97;5.57;;;;;;;18.65;96.24;99019.03;5110740;28;20194;-65
2022/04/22 11:13:45;;;;;;;5.60;5.30;;;;;;;18.68;95.89;99009.25;5095126;28;20207;-66
2022/04/22 11:16:32;;;;;;;5.43;5.13;;;;;;;18.67;94.83;99006.78;5109433;28;20732;-66
2022/04/22 11:19:37;;;;;;;6.50;6.10;;;;;;;18.64;96.66;99013.00;5109829;28;20203;-66
2022/04/22 11:22:07;;;;;;;6.87;5.90;;;;;;;18.81;98.50;99004.03;5108814;28;20243;-65
2022/04/22 11:24:34;;;;;;;7.20;6.67;;;;;;;18.84;97.11;98994.28;5110511;28;20198;-63
2022/04/22 11:27:06;;;;;;;6.67;6.10;;;;;;;19.02;96.93;98996.50;5110167;28;20207;-65
2022/04/22 11:29:33;;;;;;;10.73;6.27;;;;;;;19.09;96.46;98987.34;5108808;28;20195;-65
2022/04/22 11:32:20;;;;;;;5.40;5.00;;;;;;;19.09;94.66;98992.56;5109593;28;20749;-64
2022/04/22 11:35:12;;;;;;;6.47;5.73;;;;;;;19.25;95.13;98982.72;5108457;28;20230;-64
2022/04/22 11:37:41;;;;;;;9.47;5.93;;;;;;;19.33;95.06;98977.78;5111328;27;20209;-64
2022/04/22 11:40:09;;;;;;;6.33;5.80;;;;;;;19.44;96.16;98946.69;5110676;28;20296;-64
2022/04/22 11:42:43;;;;;;;5.65;5.35;;;;;;;19.39;92.55;98918.38;5111678;27;20671;-66
2022/04/22 11:45:13;;;;;;;5.63;5.43;;;;;;;19.47;93.32;98925.66;5110922;27;20242;-65
2022/04/22 11:47:40;;;;;;;6.13;5.63;;;;;;;19.56;93.72;98924.97;5111436;28;20692;-64
2022/04/22 11:50:09;;;;;;;6.27;5.87;;;;;;;19.57;93.70;98911.03;5101134;28;20290;-65
2022/04/22 11:52:37;;;;;;;5.20;4.90;;;;;;;19.68;94.21;98911.03;5110810;28;20301;-65
2022/04/22 11:55:07;;;;;;;5.20;4.90;;;;;;;19.95;95.39;98909.91;5110582;28;20281;-64
2022/04/22 11:57:36;;;;;;;6.03;4.10;;;;;;;20.06;91.04;98908.16;5110658;28;20730;-64
2022/04/22 12:05:37;;;;;;;4.93;4.43;;;;;;;20.16;87.23;98883.06;5110584;28;20205;-65
2022/04/22 12:08:11;;;;;;;4.80;4.50;;;;;;;20.30;90.04;98866.41;5111307;28;20195;-65
2022/04/22 12:10:39;;;;;;;4.07;3.87;;;;;;;20.43;86.38;98880.13;5110955;28;20191;-65
2022/04/22 12:13:08;;;;;;;3.70;3.50;;;;;;;20.42;86.09;98868.03;5108165;28;20340;-65
2022/04/22 12:15:39;;;;;;;5.40;3.37;;;;;;;20.37;85.59;98859.78;5111551;28;20207;-66
2022/04/22 12:18:07;;;;;;;2.90;2.70;;;;;;;20.58;86.60;98857.25;5113514;27;20209;-65